Time;durP1;ratioP1;P1;durP2;ratioP2;P2;SDS_P1;SDS_P2;PMS_P1;PMS_P2;Temp;Humidity;BMP_temperature;BMP_pressure;BME280_temperature;BME280_humidity;BME280_pressure;Samples;Min_cycle;Max_cycle;Signal;HPM_P1;HPM_P2
2023/03/16 00:01:15;;;;;;;12.90;5.35;;;;;;;4.73;58.55;98890.50;5075705;28;20020;-51
2023/03/16 00:03:41;;;;;;;9.77;6.10;;;;;;;4.93;58.26;98882.41;5075282;28;20401;-51
2023/03/16 00:06:10;;;;;;;14.68;5.30;;;;;;;5.05;57.73;98875.13;5093409;28;20024;-51
2023/03/16 00:08:35;;;;;;;14.25;5.00;;;;;;;5.05;57.44;98873.38;5093471;28;20032;-51
2023/03/16 00:11:01;;;;;;;10.45;5.70;;;;;;;5.17;58.06;98879.06;5075304;28;20020;-51
2023/03/16 00:13:28;;;;;;;9.10;5.68;;;;;;;5.29;57.38;98875.19;5093341;28;20485;-50
2023/03/16 00:15:56;;;;;;;13.93;5.38;;;;;;;5.31;57.36;98872.41;5075004;28;20515;-50
2023/03/16 00:18:26;;;;;;;10.18;4.93;;;;;;;5.32;56.81;98876.66;5093316;28;20043;-50
2023/03/16 00:20:54;;;;;;;8.52;4.70;;;;;;;5.44;56.76;98866.72;5075016;28;20397;-51
2023/03/16 00:23:26;;;;;;;13.48;7.55;;;;;;;5.38;56.77;98863.78;5074886;28;20043;-51
2023/03/16 00:25:59;;;;;;;10.10;5.93;;;;;;;5.39;57.05;98862.00;5093167;28;20036;-51
2023/03/16 00:28:26;;;;;;;13.65;4.95;;;;;;;5.44;56.83;98866.72;5093077;28;20370;-50
2023/03/16 00:30:57;;;;;;;10.57;5.00;;;;;;;5.29;56.08;98851.78;5074937;28;20577;-51
2023/03/16 00:33:23;;;;;;;9.85;4.80;;;;;;;5.10;57.32;98858.09;5093147;28;20031;-50
2023/03/16 00:35:49;;;;;;;9.00;4.78;;;;;;;5.04;57.77;98863.94;5092844;28;20501;-50
2023/03/16 00:38:16;;;;;;;10.13;5.53;;;;;;;4.92;58.01;98853.00;5092969;28;20020;-50
2023/03/16 00:40:43;;;;;;;9.50;4.93;;;;;;;4.79;58.12;98853.47;5092792;28;20077;-50
2023/03/16 00:43:08;;;;;;;8.75;5.13;;;;;;;4.75;58.79;98853.97;5092873;28;20027;-50
2023/03/16 00:45:35;;;;;;;12.75;5.53;;;;;;;4.60;59.13;98851.16;5074499;28;20016;-50
2023/03/16 00:48:00;;;;;;;18.85;5.80;;;;;;;4.61;59.39;98850.19;5092978;28;20032;-50
2023/03/16 00:50:27;;;;;;;17.05;5.88;;;;;;;4.64;59.41;98846.44;5092559;28;20081;-51
2023/03/16 00:52:52;;;;;;;9.30;5.00;;;;;;;4.64;58.89;98851.66;5092631;28;20057;-49
2023/03/16 00:55:19;;;;;;;11.23;5.55;;;;;;;4.66;59.58;98852.31;5074236;28;20050;-50
2023/03/16 00:57:45;;;;;;;10.68;5.55;;;;;;;4.66;59.38;98857.50;5074669;28;20054;-50
2023/03/16 01:00:14;;;;;;;8.93;5.45;;;;;;;4.61;58.92;98850.19;5092733;28;20540;-50
2023/03/16 01:02:40;;;;;;;11.05;5.53;;;;;;;4.71;59.70;98848.25;5092466;28;20072;-50
2023/03/16 01:05:08;;;;;;;8.95;5.15;;;;;;;4.68;59.13;98840.75;5092566;28;20024;-50
2023/03/16 01:07:35;;;;;;;11.18;5.50;;;;;;;4.56;59.13;98842.84;5074307;28;20630;-49
2023/03/16 01:10:01;;;;;;;8.98;5.63;;;;;;;4.37;60.09;98846.53;5074501;28;20081;-50
2023/03/16 01:12:27;;;;;;;9.07;4.90;;;;;;;4.16;60.44;98848.69;5074267;28;20430;-50
2023/03/16 01:14:54;;;;;;;11.20;5.18;;;;;;;4.05;61.26;98844.59;5092234;28;20149;-50
2023/03/16 01:17:21;;;;;;;8.35;4.97;;;;;;;4.04;61.53;98842.13;5092295;28;20508;-50
2023/03/16 01:19:47;;;;;;;12.57;5.63;;;;;;;4.02;61.82;98844.88;5092185;28;20023;-50
2023/03/16 01:22:14;;;;;;;11.27;4.93;;;;;;;4.13;61.57;98838.63;5073966;28;20031;-50
2023/03/16 01:24:40;;;;;;;11.32;5.20;;;;;;;4.18;61.17;98841.56;5092001;28;20032;-49
2023/03/16 01:27:07;;;;;;;9.23;6.05;;;;;;;4.14;61.20;98838.44;5073884;28;20115;-50
2023/03/16 01:29:33;;;;;;;10.60;5.00;;;;;;;4.02;61.05;98839.69;5073913;28;20031;-49
2023/03/16 01:32:00;;;;;;;9.90;5.18;;;;;;;3.95;62.28;98847.28;5091960;28;20030;-49
2023/03/16 01:34:26;;;;;;;15.13;5.70;;;;;;;3.87;62.20;98842.06;5056933;28;20116;-50
2023/03/16 01:36:52;;;;;;;11.23;5.20;;;;;;;4.04;62.46;98842.13;5091551;28;20032;-50
2023/03/16 01:39:18;;;;;;;17.08;6.75;;;;;;;4.15;62.42;98836.69;5092010;28;20017;-50
2023/03/16 01:41:45;;;;;;;10.13;5.45;;;;;;;4.37;62.21;98840.53;5091914;28;20089;-50
2023/03/16 01:44:17;;;;;;;10.13;4.97;;;;;;;4.59;60.46;98837.34;5091844;28;20489;-50
2023/03/16 01:46:43;;;;;;;13.77;7.13;;;;;;;4.50;60.55;98834.88;5091908;28;20397;-50
2023/03/16 01:49:29;;;;;;;11.48;4.68;;;;;;;4.37;60.42;98832.72;5091682;28;20062;-50
2023/03/16 01:51:57;;;;;;;11.20;4.70;;;;;;;4.30;60.41;98836.91;5092083;28;20031;-50
2023/03/16 01:54:35;;;;;;;9.05;5.30;;;;;;;4.17;61.45;98832.97;5073697;28;20034;-50
2023/03/16 01:57:08;;;;;;;10.95;5.10;;;;;;;4.26;61.28;98833.00;5091746;28;20028;-50
2023/03/16 01:59:41;;;;;;;8.57;4.43;;;;;;;4.32;61.02;98840.16;5091747;28;20028;-50
2023/03/16 02:02:08;;;;;;;9.88;4.63;;;;;;;4.22;61.00;98840.28;5091789;28;20016;-50
2023/03/16 02:04:41;;;;;;;7.63;4.85;;;;;;;4.06;61.12;98841.00;5091715;28;20028;-50
2023/03/16 02:07:07;;;;;;;11.20;4.72;;;;;;;3.94;62.44;98834.47;5091679;28;20039;-50
2023/03/16 02:09:38;;;;;;;12.95;5.15;;;;;;;3.89;62.16;98828.94;5091916;28;20389;-49
2023/03/16 02:12:05;;;;;;;8.63;5.25;;;;;;;3.76;62.98;98822.38;5091661;28;20065;-50
2023/03/16 02:14:31;;;;;;;11.55;5.22;;;;;;;3.85;63.32;98823.22;5091734;28;20428;-50
2023/03/16 02:16:56;;;;;;;7.90;4.78;;;;;;;3.90;62.95;98813.16;5073363;28;20016;-50
2023/03/16 02:19:45;;;;;;;16.33;6.82;;;;;;;3.94;62.67;98808.50;5091658;28;20111;-50
2023/03/16 02:22:12;;;;;;;19.23;13.50;;;;;;;3.92;62.68;98800.84;5073423;28;20090;-50
2023/03/16 02:24:38;;;;;;;8.35;6.45;;;;;;;3.90;62.75;98796.78;5091592;28;20500;-50
2023/03/16 02:27:09;;;;;;;9.43;5.57;;;;;;;3.86;62.97;98793.69;5073403;28;20024;-50
2023/03/16 02:30:03;;;;;;;9.43;4.95;;;;;;;3.81;62.86;98793.34;5073398;28;20127;-49
2023/03/16 02:32:32;;;;;;;11.90;4.40;;;;;;;3.85;63.10;98793.84;5091413;28;20016;-49
2023/03/16 02:35:00;;;;;;;10.98;5.03;;;;;;;3.84;62.68;98787.03;5092078;28;20036;-49
2023/03/16 02:37:26;;;;;;;12.38;4.40;;;;;;;3.70;63.04;98784.06;5091303;28;20023;-50
2023/03/16 02:39:52;;;;;;;9.80;3.80;;;;;;;3.73;63.13;98790.72;5073237;28;20032;-50
2023/03/16 02:42:21;;;;;;;10.32;4.53;;;;;;;3.65;63.11;98790.66;5091338;28;20484;-50
2023/03/16 02:44:57;;;;;;;6.90;3.67;;;;;;;3.42;63.21;98790.34;5091312;28;20024;-50
2023/03/16 02:47:42;;;;;;;9.63;3.67;;;;;;;3.22;63.38;98800.91;5092421;28;20484;-50
2023/03/16 02:50:11;;;;;;;11.45;4.35;;;;;;;3.11;63.57;98799.34;5094738;28;20467;-50
2023/03/16 02:52:38;;;;;;;7.53;3.53;;;;;;;3.01;63.80;98796.03;5094845;28;20024;-49
2023/03/16 02:55:05;;;;;;;6.60;3.58;;;;;;;2.91;63.83;98796.09;5094861;28;20073;-49
2023/03/16 02:57:31;;;;;;;8.13;4.00;;;;;;;2.86;64.29;98784.53;5094752;28;20098;-50
2023/03/16 02:59:57;;;;;;;7.93;4.15;;;;;;;2.77;65.05;98789.66;5076534;28;20028;-50
2023/03/16 03:02:22;;;;;;;8.85;4.18;;;;;;;2.81;65.50;98777.22;5094665;28;20020;-50
2023/03/16 03:04:48;;;;;;;6.50;4.55;;;;;;;2.82;65.70;98784.03;5076533;28;20012;-49
2023/03/16 03:07:15;;;;;;;17.75;9.45;;;;;;;2.73;66.17;98790.91;5076457;28;20023;-50
2023/03/16 03:09:41;;;;;;;12.48;5.47;;;;;;;2.67;66.58;98785.50;5094533;28;20027;-50
2023/03/16 03:12:11;;;;;;;9.85;4.68;;;;;;;2.72;66.72;98776.34;5094492;28;20093;-50
2023/03/16 03:14:38;;;;;;;38.00;30.95;;;;;;;2.83;66.92;98774.47;5076332;28;20058;-50
2023/03/16 03:17:08;;;;;;;14.95;7.82;;;;;;;2.89;66.46;98769.50;5076210;28;20031;-50
2023/03/16 03:19:35;;;;;;;12.27;4.53;;;;;;;2.91;66.33;98774.56;5094454;28;20016;-50
2023/03/16 03:22:05;;;;;;;25.85;13.35;;;;;;;2.93;66.58;98770.84;5094356;28;20029;-50
2023/03/16 03:24:32;;;;;;;12.45;5.78;;;;;;;3.00;67.02;98758.94;5094530;28;20099;-50
2023/03/16 03:27:04;;;;;;;11.88;4.60;;;;;;;3.31;66.37;98757.69;5094187;28;20027;-50
2023/03/16 03:29:33;;;;;;;9.30;4.35;;;;;;;3.50;65.45;98754.06;5094256;28;20085;-50
2023/03/16 03:32:00;;;;;;;9.23;5.25;;;;;;;3.42;64.86;98756.63;5094380;28;20031;-50
2023/03/16 03:34:27;;;;;;;9.63;5.18;;;;;;;3.48;64.66;98766.38;5094146;28;20024;-50
2023/03/16 03:36:52;;;;;;;7.03;4.25;;;;;;;3.47;64.48;98752.59;5075746;28;20028;-50
2023/03/16 03:39:19;;;;;;;8.38;3.95;;;;;;;3.54;64.82;98760.56;5094021;28;20024;-50
2023/03/16 03:41:44;;;;;;;11.63;5.28;;;;;;;3.58;64.52;98749.75;5075859;28;20024;-50
2023/03/16 03:44:10;;;;;;;7.80;3.72;;;;;;;3.60;64.54;98749.56;5093877;28;20028;-50
2023/03/16 03:46:36;;;;;;;9.38;4.25;;;;;;;3.59;64.32;98745.38;5093868;28;20024;-50
2023/03/16 03:49:04;;;;;;;7.82;4.07;;;;;;;3.64;64.55;98737.13;5093620;28;20548;-50
2023/03/16 03:51:30;;;;;;;19.40;4.75;;;;;;;3.66;63.37;98737.78;5093780;28;20375;-50
2023/03/16 03:53:57;;;;;;;9.57;4.05;;;;;;;3.66;63.84;98737.78;5075767;28;20531;-50
2023/03/16 03:56:23;;;;;;;6.43;4.03;;;;;;;3.64;63.96;98737.91;5075410;28;20126;-50
2023/03/16 03:58:49;;;;;;;10.40;4.95;;;;;;;3.57;63.96;98742.13;5093235;28;20111;-50
2023/03/16 04:01:14;;;;;;;8.43;4.80;;;;;;;3.55;63.92;98739.66;5075567;28;20489;-49
2023/03/16 04:03:40;;;;;;;7.32;4.10;;;;;;;3.41;64.01;98727.28;5075330;28;20024;-50
2023/03/16 04:06:07;;;;;;;8.18;4.35;;;;;;;3.28;64.31;98739.81;5093717;28;20485;-49
2023/03/16 04:08:33;;;;;;;14.48;5.47;;;;;;;3.18;64.65;98743.34;5093477;28;20111;-49
2023/03/16 04:10:59;;;;;;;8.30;4.35;;;;;;;3.10;64.77;98739.84;5093339;28;20137;-49
2023/03/16 04:13:25;;;;;;;11.70;5.30;;;;;;;2.88;64.94;98736.78;5093354;28;20048;-50
2023/03/16 04:16:01;;;;;;;7.50;4.43;;;;;;;2.68;65.30;98737.94;5075014;28;20051;-49
2023/03/16 04:18:26;;;;;;;;;;;;;;;2.54;65.59;98747.81;5093932;28;20051;-49
2023/03/16 04:20:52;;;;;;;11.05;4.18;;;;;;;2.48;66.00;98747.63;5093199;28;20427;-49
2023/03/16 04:23:19;;;;;;;6.65;4.35;;;;;;;2.43;65.94;98736.88;5093182;28;20020;-49
2023/03/16 04:25:46;;;;;;;8.43;4.32;;;;;;;2.43;65.92;98753.22;5074835;28;20561;-49
2023/03/16 04:28:12;;;;;;;13.80;4.50;;;;;;;2.44;65.71;98752.25;5074881;28;20024;-49
2023/03/16 04:30:37;;;;;;;9.57;5.15;;;;;;;2.50;65.86;98743.09;5074787;28;20027;-49
2023/03/16 04:33:03;;;;;;;7.40;4.50;;;;;;;2.55;66.48;98744.25;5074788;28;20024;-49
2023/03/16 04:35:29;;;;;;;7.72;4.20;;;;;;;2.57;66.83;98736.34;5092831;28;20043;-50
2023/03/16 04:37:54;;;;;;;9.43;4.45;;;;;;;2.60;66.78;98731.69;5074692;28;20067;-50
2023/03/16 04:40:20;;;;;;;9.30;4.68;;;;;;;2.65;66.86;98735.63;5092867;28;20352;-49
2023/03/16 04:42:46;;;;;;;17.80;5.25;;;;;;;2.58;66.84;98725.84;5074559;28;20024;-49
2023/03/16 04:45:13;;;;;;;14.02;5.28;;;;;;;2.64;67.69;98724.44;5092677;28;20023;-50
2023/03/16 04:47:39;;;;;;;11.50;5.03;;;;;;;2.79;67.20;98715.16;5074559;28;20035;-50
2023/03/16 04:50:05;;;;;;;11.95;5.32;;;;;;;2.91;67.18;98722.72;5092419;28;20044;-50
2023/03/16 04:52:31;;;;;;;7.80;4.10;;;;;;;2.88;66.14;98716.06;5074425;28;20104;-50
2023/03/16 04:54:57;;;;;;;7.53;4.60;;;;;;;2.74;66.34;98719.19;5074645;28;20052;-50
2023/03/16 04:57:23;;;;;;;9.65;4.43;;;;;;;2.66;66.40;98726.91;5092422;28;20103;-50
2023/03/16 04:59:48;;;;;;;9.18;4.63;;;;;;;2.62;66.64;98728.13;5092718;28;20024;-50
2023/03/16 05:02:15;;;;;;;184.02;106.00;;;;;;;2.55;66.57;98730.50;5092376;28;20481;-50
2023/03/16 05:04:41;;;;;;;107.10;43.28;;;;;;;2.53;66.52;98733.22;5092391;28;20024;-50
2023/03/16 05:07:07;;;;;;;94.82;34.92;;;;;;;2.49;66.72;98729.31;5092382;28;20553;-50
2023/03/16 05:09:32;;;;;;;57.08;25.92;;;;;;;2.41;66.74;98739.59;5056980;28;20016;-50
2023/03/16 05:11:58;;;;;;;58.45;23.55;;;;;;;2.37;66.40;98746.03;5073859;28;20071;-50
2023/03/16 05:14:23;;;;;;;48.55;19.20;;;;;;;2.33;66.54;98742.91;5092319;28;20051;-50
2023/03/16 05:16:51;;;;;;;109.78;85.90;;;;;;;2.28;66.78;98742.53;5073972;28;20044;-50
2023/03/16 05:19:17;;;;;;;1999.90;854.10;;;;;;;2.32;67.18;98732.72;5092414;28;20024;-50
2023/03/16 05:21:44;;;;;;;1878.28;538.50;;;;;;;2.39;67.19;98729.41;5057365;28;20382;-49
2023/03/16 05:24:11;;;;;;;536.58;173.60;;;;;;;2.38;67.02;98725.16;5092034;28;20024;-50
2023/03/16 05:26:37;;;;;;;179.13;55.10;;;;;;;2.40;67.07;98730.22;5092338;28;20024;-49
2023/03/16 05:29:03;;;;;;;614.75;383.52;;;;;;;2.36;67.25;98721.91;5091938;28;20053;-50
2023/03/16 05:31:31;;;;;;;288.23;178.88;;;;;;;2.37;67.49;98728.75;5092022;28;20046;-50
2023/03/16 05:34:01;;;;;;;120.75;55.67;;;;;;;2.38;67.65;98716.59;5074230;28;20020;-50
2023/03/16 05:36:27;;;;;;;29.90;12.30;;;;;;;2.39;68.19;98716.47;5091917;28;20644;-49
2023/03/16 05:38:52;;;;;;;70.30;20.75;;;;;;;2.42;68.24;98709.34;5091928;28;20055;-50
2023/03/16 05:41:20;;;;;;;32.35;10.38;;;;;;;2.48;68.52;98719.94;5073735;28;20024;-50
2023/03/16 05:43:46;;;;;;;32.90;11.50;;;;;;;2.70;67.66;98720.44;5091899;28;20016;-50
2023/03/16 05:46:12;;;;;;;30.25;9.85;;;;;;;2.78;67.29;98726.50;5073690;28;20401;-50
2023/03/16 05:48:38;;;;;;;23.35;8.70;;;;;;;2.85;66.84;98713.75;5091571;28;20028;-50
2023/03/16 05:51:04;;;;;;;1324.18;901.42;;;;;;;2.87;66.39;98718.78;5057246;28;20029;-49
2023/03/16 05:53:34;;;;;;;353.10;241.32;;;;;;;2.84;65.96;98719.91;5091734;28;20102;-50
2023/03/16 05:56:00;;;;;;;205.88;137.40;;;;;;;2.89;66.20;98724.66;5091623;28;20020;-50
2023/03/16 05:58:27;;;;;;;65.20;40.30;;;;;;;3.09;65.73;98714.91;5073594;28;20467;-50
2023/03/16 06:00:54;;;;;;;69.72;49.22;;;;;;;3.24;65.35;98715.16;5091784;28;20020;-50
2023/03/16 06:03:21;;;;;;;104.20;72.80;;;;;;;3.42;64.59;98712.50;5091761;28;20392;-50
2023/03/16 06:05:47;;;;;;;129.60;91.53;;;;;;;3.63;63.93;98707.75;5091746;28;20055;-50
2023/03/16 06:08:14;;;;;;;75.35;48.13;;;;;;;3.78;62.67;98702.78;5073603;28;20498;-50
2023/03/16 06:10:39;;;;;;;1999.90;792.78;;;;;;;3.92;62.91;98703.97;5091749;28;20389;-50
2023/03/16 06:13:05;;;;;;;1335.53;482.77;;;;;;;4.00;62.61;98706.59;5091638;28;20024;-50
2023/03/16 06:15:30;;;;;;;194.57;67.50;;;;;;;4.00;61.32;98706.59;5091488;28;20016;-50
2023/03/16 06:17:56;;;;;;;80.10;27.90;;;;;;;3.93;61.12;98716.00;5091595;28;20050;-50
2023/03/16 06:20:22;;;;;;;103.70;39.67;;;;;;;4.02;61.22;98711.66;5091847;28;20016;-50
2023/03/16 06:22:48;;;;;;;611.40;544.67;;;;;;;4.33;60.29;98711.91;5094929;28;20024;-50
2023/03/16 06:25:13;;;;;;;919.22;729.13;;;;;;;4.65;60.29;98711.13;5077266;28;20028;-50
2023/03/16 06:27:39;;;;;;;305.50;235.23;;;;;;;4.86;60.36;98715.03;5095666;28;20028;-50
2023/03/16 06:30:07;;;;;;;65.78;41.55;;;;;;;4.96;60.09;98716.47;5077216;28;20031;-50
2023/03/16 06:32:34;;;;;;;36.13;19.15;;;;;;;5.08;59.98;98701.34;5095247;28;20028;-50
2023/03/16 06:35:02;;;;;;;19.92;10.60;;;;;;;5.37;59.25;98708.63;5095376;28;20055;-50
2023/03/16 06:37:29;;;;;;;23.50;13.15;;;;;;;5.52;56.99;98695.75;5095175;28;20552;-49
2023/03/16 06:39:54;;;;;;;21.35;10.55;;;;;;;5.69;56.04;98691.28;5076945;28;20070;-50
2023/03/16 06:42:20;;;;;;;23.60;9.75;;;;;;;6.04;54.77;98701.41;5095148;28;20032;-50
2023/03/16 06:44:46;;;;;;;81.03;58.13;;;;;;;6.30;53.56;98699.31;5076916;28;20073;-50
2023/03/16 06:47:12;;;;;;;54.80;26.88;;;;;;;6.63;53.14;98699.09;5095095;28;20073;-50
2023/03/16 06:49:38;;;;;;;28.27;15.23;;;;;;;7.11;51.68;98693.66;5076555;28;20079;-50
2023/03/16 06:52:04;;;;;;;14.43;6.80;;;;;;;7.89;49.25;98702.75;5095033;28;20062;-50
2023/03/16 06:54:33;;;;;;;14.75;6.97;;;;;;;8.64;48.33;98700.75;5094931;28;20058;-50
2023/03/16 06:56:58;;;;;;;10.40;4.65;;;;;;;9.29;46.61;98693.63;5094871;28;20057;-51
2023/03/16 06:59:24;;;;;;;12.20;5.22;;;;;;;9.64;44.91;98691.00;5076772;28;20023;-50
2023/03/16 07:01:49;;;;;;;7.13;4.30;;;;;;;9.74;44.21;98690.66;5094836;28;20046;-50
2023/03/16 07:04:15;;;;;;;10.70;5.13;;;;;;;9.74;44.00;98694.09;5094832;28;20020;-50
2023/03/16 07:06:41;;;;;;;7.68;4.68;;;;;;;10.09;43.58;98696.63;5094745;28;20066;-51
2023/03/16 07:09:07;;;;;;;15.00;4.65;;;;;;;10.52;44.40;98688.50;5094929;28;20032;-50
2023/03/16 07:11:33;;;;;;;15.20;4.95;;;;;;;11.32;43.75;98692.94;5076373;28;20020;-50
2023/03/16 07:14:00;;;;;;;12.35;3.65;;;;;;;11.75;42.23;98685.34;5094532;28;20024;-50
2023/03/16 07:16:26;;;;;;;7.55;3.55;;;;;;;12.24;41.31;98692.88;5076445;28;20540;-50
2023/03/16 07:18:52;;;;;;;12.23;3.72;;;;;;;13.10;39.99;98688.78;5076289;28;20047;-50
2023/03/16 07:21:18;;;;;;;8.90;5.15;;;;;;;13.72;38.55;98694.91;5076210;28;20493;-50
2023/03/16 07:23:44;;;;;;;8.65;2.83;;;;;;;14.53;35.14;98692.84;5059726;28;20122;-51
2023/03/16 07:26:10;;;;;;;14.70;5.45;;;;;;;15.12;33.31;98698.25;5076301;28;20480;-50
2023/03/16 07:28:37;;;;;;;10.93;5.22;;;;;;;15.51;32.78;98698.59;5059442;28;20497;-51
2023/03/16 07:31:04;;;;;;;13.15;4.57;;;;;;;16.09;31.73;98698.69;5094219;28;20024;-50
2023/03/16 07:33:34;;;;;;;6.88;2.92;;;;;;;16.09;30.94;98688.91;5093333;28;20028;-51
2023/03/16 07:36:03;;;;;;;8.27;2.88;;;;;;;15.83;30.96;98700.03;5094016;28;20519;-51
2023/03/16 07:38:31;;;;;;;14.93;3.53;;;;;;;15.33;31.05;98693.41;5093980;28;20024;-50
2023/03/16 07:40:57;;;;;;;7.85;3.03;;;;;;;15.00;32.05;98702.72;5093920;28;20027;-50
2023/03/16 07:43:23;;;;;;;6.78;2.95;;;;;;;15.30;31.91;98702.63;5075775;28;20265;-50
2023/03/16 07:45:50;;;;;;;9.13;3.17;;;;;;;15.66;31.39;98706.03;5093923;28;20016;-48
2023/03/16 07:48:16;;;;;;;11.70;3.28;;;;;;;16.07;30.91;98695.50;5094084;28;20111;-48
2023/03/16 07:50:42;;;;;;;10.85;3.60;;;;;;;16.55;30.67;98695.03;5093567;28;20048;-48
2023/03/16 07:53:09;;;;;;;7.95;2.35;;;;;;;16.97;28.99;98688.59;5093771;28;20497;-48
2023/03/16 07:55:37;;;;;;;9.57;3.67;;;;;;;17.01;29.37;98688.91;5093906;28;20373;-48
2023/03/16 07:58:05;;;;;;;8.13;3.70;;;;;;;17.07;29.30;98682.66;5093710;28;20022;-48
2023/03/16 08:00:32;;;;;;;8.45;4.22;;;;;;;17.03;29.49;98682.31;5075460;28;20028;-48
2023/03/16 08:02:58;;;;;;;5.80;2.50;;;;;;;17.29;28.84;98693.31;5075437;28;20378;-49
2023/03/16 08:05:24;;;;;;;6.63;2.30;;;;;;;17.64;28.42;98686.88;5075569;28;20178;-48
2023/03/16 08:07:50;;;;;;;7.60;3.10;;;;;;;17.55;28.33;98691.81;5075357;28;20081;-48
2023/03/16 08:10:17;;;;;;;5.80;3.17;;;;;;;17.57;28.08;98690.50;5093351;28;20068;-48
2023/03/16 08:12:43;;;;;;;5.95;2.53;;;;;;;17.74;27.68;98687.00;5075462;28;20095;-48
2023/03/16 08:15:09;;;;;;;5.25;2.67;;;;;;;17.72;27.36;98695.19;5093386;28;20052;-48
2023/03/16 08:17:35;;;;;;;8.90;2.63;;;;;;;17.69;27.64;98695.69;5093234;28;20031;-48
2023/03/16 08:20:09;;;;;;;8.50;2.55;;;;;;;17.77;27.43;98700.56;5093287;28;20020;-47
2023/03/16 08:22:35;;;;;;;4.60;2.83;;;;;;;18.04;28.19;98699.84;5093194;28;20032;-48
2023/03/16 08:25:02;;;;;;;5.25;2.33;;;;;;;18.80;27.61;98696.38;5093136;28;20024;-48
2023/03/16 08:27:28;;;;;;;10.80;3.35;;;;;;;19.17;26.29;98700.88;5093056;28;20020;-48
2023/03/16 08:29:54;;;;;;;11.63;3.97;;;;;;;19.44;26.26;98702.66;5092993;28;20032;-48
2023/03/16 08:32:20;;;;;;;4.55;1.80;;;;;;;19.32;24.84;98702.84;5092978;28;20020;-47
2023/03/16 08:34:46;;;;;;;4.05;2.13;;;;;;;19.31;24.35;98710.03;5074841;28;20032;-48
2023/03/16 08:37:13;;;;;;;6.80;2.30;;;;;;;19.32;25.01;98714.28;5074622;28;20027;-48
2023/03/16 08:39:41;;;;;;;6.07;2.35;;;;;;;19.41;24.50;98711.16;5092849;28;20505;-48
2023/03/16 08:42:07;;;;;;;8.90;2.40;;;;;;;19.53;24.30;98719.72;5092736;28;20032;-48
2023/03/16 08:44:33;;;;;;;8.10;2.47;;;;;;;19.15;24.86;98721.63;5074185;28;20031;-48
2023/03/16 08:46:58;;;;;;;9.10;2.20;;;;;;;19.01;25.00;98715.13;5074371;28;20397;-48
2023/03/16 08:49:26;;;;;;;12.98;2.42;;;;;;;18.95;25.18;98719.59;5074215;28;20123;-48
2023/03/16 08:51:53;;;;;;;40.45;5.28;;;;;;;19.38;25.74;98714.31;5092667;28;20058;-48
2023/03/16 08:54:18;;;;;;;11.25;2.13;;;;;;;19.82;24.22;98717.53;5092540;28;20042;-48
2023/03/16 08:56:44;;;;;;;12.13;2.60;;;;;;;20.23;24.54;98711.53;5092478;28;20023;-48
2023/03/16 08:59:10;;;;;;;24.63;3.75;;;;;;;20.42;24.02;98720.63;5092563;28;20157;-47
2023/03/16 09:01:35;;;;;;;11.27;2.05;;;;;;;20.41;23.67;98716.38;5074251;28;20555;-48
2023/03/16 09:04:02;;;;;;;9.80;1.70;;;;;;;20.40;23.59;98713.97;5092439;28;20401;-46
2023/03/16 09:06:27;;;;;;;13.73;2.80;;;;;;;20.49;23.92;98717.72;5092403;28;20085;-46
2023/03/16 09:08:54;;;;;;;7.10;2.15;;;;;;;21.15;24.13;98717.75;5074358;28;20019;-46
2023/03/16 09:11:21;;;;;;;17.77;3.10;;;;;;;21.53;22.86;98696.88;5092327;28;20020;-46
2023/03/16 09:13:47;;;;;;;14.52;3.33;;;;;;;21.70;22.78;98701.91;5092278;28;20046;-46
2023/03/16 09:16:14;;;;;;;20.13;4.15;;;;;;;21.43;23.79;98704.09;5092431;28;20082;-46
2023/03/16 09:18:41;;;;;;;6.35;2.20;;;;;;;21.59;23.09;98703.03;5057432;28;20042;-46
2023/03/16 09:21:09;;;;;;;14.40;3.15;;;;;;;21.46;23.07;98691.03;5074027;28;20071;-46
2023/03/16 09:23:36;;;;;;;10.05;2.17;;;;;;;22.06;22.37;98691.06;5073940;28;20016;-46
2023/03/16 09:26:06;;;;;;;11.45;2.95;;;;;;;22.06;22.04;98696.41;5092010;28;20545;-46
2023/03/16 09:28:33;;;;;;;7.70;2.05;;;;;;;22.18;22.01;98697.97;5092302;28;20423;-46
2023/03/16 09:31:00;;;;;;;28.10;4.50;;;;;;;22.20;21.83;98693.13;5092072;28;20039;-47
2023/03/16 09:33:27;;;;;;;14.60;3.50;;;;;;;22.86;20.09;98690.00;5092008;28;20020;-46
2023/03/16 09:35:56;;;;;;;4.35;1.38;;;;;;;23.30;19.12;98685.59;5091789;28;20077;-46
2023/03/16 09:38:24;;;;;;;16.50;2.60;;;;;;;23.38;20.11;98687.69;5091956;28;20030;-46
2023/03/16 09:41:05;;;;;;;294.08;261.98;;;;;;;22.58;19.88;98680.06;5091875;28;20490;-46
2023/03/16 09:44:01;;;;;;;447.63;237.15;;;;;;;21.33;21.13;98679.03;5091914;28;20020;-46
2023/03/16 09:46:40;;;;;;;125.10;54.30;;;;;;;21.44;21.20;98671.81;5073662;28;20446;-46
2023/03/16 09:49:10;;;;;;;29.55;12.65;;;;;;;21.79;21.00;98669.28;5091646;28;20086;-46
2023/03/16 09:51:43;;;;;;;43.47;17.63;;;;;;;22.49;20.34;98659.25;5073699;28;20016;-46
2023/03/16 09:54:19;;;;;;;50.17;33.67;;;;;;;23.16;19.59;98653.38;5091904;28;20039;-46
2023/03/16 09:56:45;;;;;;;53.67;47.75;;;;;;;23.53;19.12;98651.88;5075436;28;20028;-46
2023/03/16 09:59:14;;;;;;;76.25;55.72;;;;;;;23.65;19.70;98643.44;5095920;28;20538;-46
2023/03/16 10:01:51;;;;;;;29.23;20.05;;;;;;;23.52;19.25;98644.91;5096100;28;20165;-46
2023/03/16 10:04:35;;;;;;;53.17;32.92;;;;;;;23.07;19.81;98630.97;5095937;28;20039;-46
2023/03/16 10:07:29;;;;;;;24.17;14.23;;;;;;;23.29;19.87;98635.81;5095879;28;20039;-46
2023/03/16 10:10:07;;;;;;;38.28;20.38;;;;;;;23.40;20.15;98634.63;5096071;28;20047;-46
2023/03/16 10:12:41;;;;;;;19.73;9.90;;;;;;;23.57;19.80;98634.13;5095686;28;20023;-46
2023/03/16 10:15:25;;;;;;;15.75;10.52;;;;;;;24.11;19.69;98640.16;5095742;28;20036;-46
2023/03/16 10:18:15;;;;;;;19.90;11.13;;;;;;;24.59;17.33;98641.84;5095598;28;20024;-47
2023/03/16 10:20:41;;;;;;;3.38;1.65;;;;;;;24.54;16.69;98639.25;5095643;28;20032;-47
2023/03/16 10:23:23;;;;;;;6.78;4.28;;;;;;;24.73;17.06;98648.06;5095483;28;20020;-47
2023/03/16 10:25:53;;;;;;;8.75;3.88;;;;;;;25.37;16.59;98637.50;5095424;28;20036;-47
2023/03/16 10:28:26;;;;;;;27.92;6.85;;;;;;;25.76;17.50;98638.09;5095469;28;20020;-47
2023/03/16 10:30:54;;;;;;;11.55;6.55;;;;;;;25.87;16.28;98645.63;5077373;28;20031;-47
2023/03/16 10:33:26;;;;;;;4.97;1.80;;;;;;;26.09;16.10;98636.03;5095351;28;20016;-47
2023/03/16 10:36:01;;;;;;;9.43;2.17;;;;;;;26.35;15.96;98630.84;5095091;28;20078;-47
2023/03/16 10:38:27;;;;;;;7.28;2.35;;;;;;;26.48;15.70;98627.31;5095263;28;20484;-47
2023/03/16 10:40:53;;;;;;;10.63;4.63;;;;;;;26.16;16.92;98641.00;5095204;28;20028;-47
2023/03/16 10:43:19;;;;;;;1586.30;760.72;;;;;;;26.26;16.81;98636.19;5095124;28;20028;-47
2023/03/16 10:45:46;;;;;;;115.15;51.10;;;;;;;25.77;15.39;98631.59;5095089;28;20098;-47
2023/03/16 10:48:15;;;;;;;64.95;27.85;;;;;;;24.54;16.80;98641.94;5094988;28;20024;-47
2023/03/16 10:50:43;;;;;;;21.60;12.13;;;;;;;23.70;17.43;98635.31;5094789;28;20093;-47
2023/03/16 10:53:24;;;;;;;92.00;44.70;;;;;;;23.13;20.73;98638.63;5076701;28;20110;-47
2023/03/16 10:55:55;;;;;;;21.17;9.80;;;;;;;23.18;18.40;98648.53;5094851;28;20028;-47
2023/03/16 10:58:34;;;;;;;17.92;8.77;;;;;;;22.41;19.71;98633.09;5094930;28;20116;-47
2023/03/16 11:01:00;;;;;;;14.55;8.80;;;;;;;22.08;19.22;98634.66;5094791;28;20016;-47
2023/03/16 11:03:27;;;;;;;71.45;63.70;;;;;;;22.35;19.51;98636.91;5076644;28;20024;-47
2023/03/16 11:06:02;;;;;;;9.63;8.55;;;;;;;22.68;19.20;98621.94;5094578;28;20020;-47
2023/03/16 11:08:38;;;;;;;6.88;4.15;;;;;;;22.72;18.47;98625.63;5075294;28;20024;-47
2023/03/16 11:11:09;;;;;;;8.15;2.95;;;;;;;22.98;19.84;98621.91;5076372;28;20081;-47
2023/03/16 11:13:36;;;;;;;12.90;3.60;;;;;;;23.49;22.92;98630.22;5094805;28;20062;-47
2023/03/16 11:16:29;;;;;;;5.43;2.22;;;;;;;23.85;20.40;98626.31;5059750;28;20016;-47
2023/03/16 11:19:08;;;;;;;13.77;2.60;;;;;;;23.92;22.07;98627.56;5094568;28;20024;-47
2023/03/16 11:21:40;;;;;;;7.32;1.90;;;;;;;24.02;21.03;98623.13;5094461;28;20024;-47
2023/03/16 11:24:22;;;;;;;3.05;1.33;;;;;;;24.12;19.69;98639.84;5094450;28;20032;-47
2023/03/16 11:26:54;;;;;;;4.65;1.73;;;;;;;23.99;21.13;98624.50;5094329;28;20107;-47
2023/03/16 11:29:34;;;;;;;3.60;1.35;;;;;;;23.39;17.44;98629.53;5094300;28;20040;-47
2023/03/16 11:32:04;;;;;;;5.72;3.13;;;;;;;23.06;19.40;98614.09;5076116;28;20027;-47
2023/03/16 11:34:32;;;;;;;13.02;8.07;;;;;;;22.65;18.24;98611.00;5094227;28;20024;-47